Terminal Aerodrome Forecast
Issued by NWS Sioux Falls, SD

Home | Current Version | Previous Version | Graphics & Text | Print | Product List | Glossary On
Versions: 1 2 3 4 5 6 7 8 9 10 11 12 13 14 15 16 17 18 19 20 21 22 23 24 25 26 27 28 29 30
000
FTUS43 KFSD 251612 AAA
TAFSUX
TAF AMD
KSUX 251612Z 2516/2612 05017G25KT 1SM -SN OVC015
      TEMPO 2516/2518 1/2SM SN
     FM251800 04017G25KT 3SM -SN OVC018
     FM252100 01015G22KT P6SM BKN020=

USA.gov is the U.S. government's official web portal to all federal, state and local government web resources and services.